sensor_id;sensor_type;location;lat;lon;timestamp;P1;durP1;ratioP1;P2;durP2;ratioP2
40198;SDS011;25906;43.536;26.068;2023-04-16T00:02:38;11.35;;;3.20;;
40198;SDS011;25906;43.536;26.068;2023-04-16T00:05:23;8.57;;;3.35;;
40198;SDS011;25906;43.536;26.068;2023-04-16T00:08:09;6.45;;;3.47;;
40198;SDS011;25906;43.536;26.068;2023-04-16T00:10:54;6.05;;;3.05;;
40198;SDS011;25906;43.536;26.068;2023-04-16T00:13:40;10.73;;;3.78;;
40198;SDS011;25906;43.536;26.068;2023-04-16T00:16:26;7.97;;;3.53;;
40198;SDS011;25906;43.536;26.068;2023-04-16T00:19:11;10.80;;;3.60;;
40198;SDS011;25906;43.536;26.068;2023-04-16T00:21:57;11.25;;;3.95;;
40198;SDS011;25906;43.536;26.068;2023-04-16T00:24:42;11.07;;;2.95;;
40198;SDS011;25906;43.536;26.068;2023-04-16T00:27:28;13.50;;;3.97;;
40198;SDS011;25906;43.536;26.068;2023-04-16T00:30:13;14.60;;;3.70;;
40198;SDS011;25906;43.536;26.068;2023-04-16T00:32:59;14.75;;;3.20;;
40198;SDS011;25906;43.536;26.068;2023-04-16T00:35:47;8.55;;;3.17;;
40198;SDS011;25906;43.536;26.068;2023-04-16T00:38:33;10.48;;;3.35;;
40198;SDS011;25906;43.536;26.068;2023-04-16T00:41:19;11.07;;;2.67;;
40198;SDS011;25906;43.536;26.068;2023-04-16T00:44:04;14.25;;;3.38;;
40198;SDS011;25906;43.536;26.068;2023-04-16T00:46:49;10.13;;;3.20;;
40198;SDS011;25906;43.536;26.068;2023-04-16T00:49:35;10.68;;;3.22;;
40198;SDS011;25906;43.536;26.068;2023-04-16T00:52:21;8.73;;;2.88;;
40198;SDS011;25906;43.536;26.068;2023-04-16T00:55:06;9.63;;;3.13;;
40198;SDS011;25906;43.536;26.068;2023-04-16T00:57:52;5.38;;;2.67;;
40198;SDS011;25906;43.536;26.068;2023-04-16T01:00:37;8.50;;;3.08;;
40198;SDS011;25906;43.536;26.068;2023-04-16T01:03:23;12.02;;;3.15;;
40198;SDS011;25906;43.536;26.068;2023-04-16T01:06:19;15.07;;;3.08;;
40198;SDS011;25906;43.536;26.068;2023-04-16T01:09:04;11.90;;;3.35;;
40198;SDS011;25906;43.536;26.068;2023-04-16T01:11:50;7.45;;;3.17;;
40198;SDS011;25906;43.536;26.068;2023-04-16T01:14:35;8.88;;;3.70;;
40198;SDS011;25906;43.536;26.068;2023-04-16T01:17:21;7.60;;;2.85;;
40198;SDS011;25906;43.536;26.068;2023-04-16T01:20:06;8.93;;;3.17;;
40198;SDS011;25906;43.536;26.068;2023-04-16T01:22:52;11.93;;;3.33;;
40198;SDS011;25906;43.536;26.068;2023-04-16T01:25:38;14.73;;;3.17;;
40198;SDS011;25906;43.536;26.068;2023-04-16T01:28:23;13.07;;;3.80;;
40198;SDS011;25906;43.536;26.068;2023-04-16T01:31:09;12.23;;;3.63;;
40198;SDS011;25906;43.536;26.068;2023-04-16T01:33:54;9.35;;;3.85;;
40198;SDS011;25906;43.536;26.068;2023-04-16T01:36:39;13.73;;;3.53;;
40198;SDS011;25906;43.536;26.068;2023-04-16T01:39:25;14.95;;;4.38;;
40198;SDS011;25906;43.536;26.068;2023-04-16T01:42:11;8.73;;;3.58;;
40198;SDS011;25906;43.536;26.068;2023-04-16T01:44:56;13.93;;;3.80;;
40198;SDS011;25906;43.536;26.068;2023-04-16T01:47:42;14.70;;;4.50;;
40198;SDS011;25906;43.536;26.068;2023-04-16T01:50:27;13.48;;;3.88;;
40198;SDS011;25906;43.536;26.068;2023-04-16T01:53:14;11.90;;;3.83;;
40198;SDS011;25906;43.536;26.068;2023-04-16T01:55:59;12.10;;;3.65;;
40198;SDS011;25906;43.536;26.068;2023-04-16T01:58:45;9.00;;;3.40;;
40198;SDS011;25906;43.536;26.068;2023-04-16T02:01:31;8.40;;;3.53;;
40198;SDS011;25906;43.536;26.068;2023-04-16T02:04:16;12.27;;;4.18;;
40198;SDS011;25906;43.536;26.068;2023-04-16T02:07:02;9.25;;;4.15;;
40198;SDS011;25906;43.536;26.068;2023-04-16T02:09:47;6.00;;;3.85;;
40198;SDS011;25906;43.536;26.068;2023-04-16T02:12:34;8.70;;;3.63;;
40198;SDS011;25906;43.536;26.068;2023-04-16T02:15:20;8.82;;;3.60;;
40198;SDS011;25906;43.536;26.068;2023-04-16T02:18:05;10.82;;;4.00;;
40198;SDS011;25906;43.536;26.068;2023-04-16T02:20:50;11.63;;;3.65;;
40198;SDS011;25906;43.536;26.068;2023-04-16T02:23:36;10.90;;;4.10;;
40198;SDS011;25906;43.536;26.068;2023-04-16T02:26:24;11.88;;;3.75;;
40198;SDS011;25906;43.536;26.068;2023-04-16T02:29:10;15.50;;;3.90;;
40198;SDS011;25906;43.536;26.068;2023-04-16T02:31:56;10.20;;;3.97;;
40198;SDS011;25906;43.536;26.068;2023-04-16T02:34:41;8.73;;;3.55;;
40198;SDS011;25906;43.536;26.068;2023-04-16T02:37:27;17.60;;;4.15;;
40198;SDS011;25906;43.536;26.068;2023-04-16T02:40:12;16.48;;;4.00;;
40198;SDS011;25906;43.536;26.068;2023-04-16T02:42:58;8.00;;;3.85;;
40198;SDS011;25906;43.536;26.068;2023-04-16T02:45:43;10.52;;;3.63;;
40198;SDS011;25906;43.536;26.068;2023-04-16T02:48:29;10.85;;;3.90;;
40198;SDS011;25906;43.536;26.068;2023-04-16T02:51:14;6.18;;;3.70;;
40198;SDS011;25906;43.536;26.068;2023-04-16T02:54:00;14.50;;;3.70;;
40198;SDS011;25906;43.536;26.068;2023-04-16T02:56:47;10.88;;;4.18;;
40198;SDS011;25906;43.536;26.068;2023-04-16T02:59:32;8.73;;;4.38;;
40198;SDS011;25906;43.536;26.068;2023-04-16T03:02:17;10.20;;;3.78;;
40198;SDS011;25906;43.536;26.068;2023-04-16T03:05:03;10.70;;;3.65;;
40198;SDS011;25906;43.536;26.068;2023-04-16T03:07:49;12.60;;;4.10;;
40198;SDS011;25906;43.536;26.068;2023-04-16T03:10:40;12.98;;;4.13;;
40198;SDS011;25906;43.536;26.068;2023-04-16T03:13:26;11.32;;;4.05;;
40198;SDS011;25906;43.536;26.068;2023-04-16T03:16:11;9.52;;;3.85;;
40198;SDS011;25906;43.536;26.068;2023-04-16T03:18:56;9.80;;;4.10;;
40198;SDS011;25906;43.536;26.068;2023-04-16T03:21:42;12.82;;;3.88;;
40198;SDS011;25906;43.536;26.068;2023-04-16T03:24:27;10.82;;;4.20;;
40198;SDS011;25906;43.536;26.068;2023-04-16T03:27:13;16.85;;;4.10;;
40198;SDS011;25906;43.536;26.068;2023-04-16T03:29:59;10.95;;;4.88;;
40198;SDS011;25906;43.536;26.068;2023-04-16T03:32:44;11.98;;;3.95;;
40198;SDS011;25906;43.536;26.068;2023-04-16T03:35:30;11.45;;;3.85;;
40198;SDS011;25906;43.536;26.068;2023-04-16T03:38:15;8.90;;;4.47;;
40198;SDS011;25906;43.536;26.068;2023-04-16T03:41:02;11.10;;;3.90;;
40198;SDS011;25906;43.536;26.068;2023-04-16T03:43:47;12.45;;;3.85;;
40198;SDS011;25906;43.536;26.068;2023-04-16T03:46:33;9.60;;;3.80;;
40198;SDS011;25906;43.536;26.068;2023-04-16T03:49:18;9.68;;;4.50;;
40198;SDS011;25906;43.536;26.068;2023-04-16T03:52:04;8.93;;;4.03;;
40198;SDS011;25906;43.536;26.068;2023-04-16T03:54:49;9.60;;;3.90;;
40198;SDS011;25906;43.536;26.068;2023-04-16T03:57:35;8.60;;;4.05;;
40198;SDS011;25906;43.536;26.068;2023-04-16T04:00:20;12.73;;;4.03;;
40198;SDS011;25906;43.536;26.068;2023-04-16T04:03:06;8.07;;;3.53;;
40198;SDS011;25906;43.536;26.068;2023-04-16T04:05:51;9.07;;;3.63;;
40198;SDS011;25906;43.536;26.068;2023-04-16T04:08:36;9.57;;;3.80;;
40198;SDS011;25906;43.536;26.068;2023-04-16T04:11:22;8.02;;;3.72;;
40198;SDS011;25906;43.536;26.068;2023-04-16T04:14:07;13.10;;;4.20;;
40198;SDS011;25906;43.536;26.068;2023-04-16T04:16:52;10.02;;;3.88;;
40198;SDS011;25906;43.536;26.068;2023-04-16T04:19:38;14.52;;;5.07;;
40198;SDS011;25906;43.536;26.068;2023-04-16T04:22:23;10.18;;;3.97;;
40198;SDS011;25906;43.536;26.068;2023-04-16T04:25:09;13.85;;;4.00;;
40198;SDS011;25906;43.536;26.068;2023-04-16T04:27:54;9.93;;;3.83;;
40198;SDS011;25906;43.536;26.068;2023-04-16T04:30:40;12.95;;;4.53;;
40198;SDS011;25906;43.536;26.068;2023-04-16T04:33:26;8.52;;;3.72;;
40198;SDS011;25906;43.536;26.068;2023-04-16T04:36:12;9.70;;;3.78;;
40198;SDS011;25906;43.536;26.068;2023-04-16T04:38:57;9.20;;;3.90;;
40198;SDS011;25906;43.536;26.068;2023-04-16T04:41:42;12.90;;;4.45;;
40198;SDS011;25906;43.536;26.068;2023-04-16T04:44:28;13.20;;;4.53;;
40198;SDS011;25906;43.536;26.068;2023-04-16T04:47:13;13.18;;;4.95;;
40198;SDS011;25906;43.536;26.068;2023-04-16T04:49:59;11.80;;;4.93;;
40198;SDS011;25906;43.536;26.068;2023-04-16T04:52:44;11.77;;;4.88;;
40198;SDS011;25906;43.536;26.068;2023-04-16T04:55:30;14.25;;;5.45;;
40198;SDS011;25906;43.536;26.068;2023-04-16T04:58:15;14.02;;;5.78;;
40198;SDS011;25906;43.536;26.068;2023-04-16T05:01:00;13.48;;;5.05;;
40198;SDS011;25906;43.536;26.068;2023-04-16T05:03:46;11.68;;;4.53;;
40198;SDS011;25906;43.536;26.068;2023-04-16T05:06:31;18.98;;;5.57;;
40198;SDS011;25906;43.536;26.068;2023-04-16T05:09:17;13.60;;;5.45;;
40198;SDS011;25906;43.536;26.068;2023-04-16T05:12:02;9.85;;;4.63;;
40198;SDS011;25906;43.536;26.068;2023-04-16T05:14:48;9.48;;;4.18;;
40198;SDS011;25906;43.536;26.068;2023-04-16T05:17:33;14.85;;;5.75;;
40198;SDS011;25906;43.536;26.068;2023-04-16T05:20:19;10.55;;;4.97;;
40198;SDS011;25906;43.536;26.068;2023-04-16T05:23:04;13.88;;;4.93;;
40198;SDS011;25906;43.536;26.068;2023-04-16T05:25:50;10.32;;;5.10;;
40198;SDS011;25906;43.536;26.068;2023-04-16T05:28:35;12.82;;;5.13;;
40198;SDS011;25906;43.536;26.068;2023-04-16T05:31:20;16.38;;;5.50;;
40198;SDS011;25906;43.536;26.068;2023-04-16T05:34:06;11.90;;;4.53;;
40198;SDS011;25906;43.536;26.068;2023-04-16T05:36:51;12.48;;;4.70;;
40198;SDS011;25906;43.536;26.068;2023-04-16T05:39:37;8.15;;;5.43;;
40198;SDS011;25906;43.536;26.068;2023-04-16T05:42:22;12.68;;;5.07;;
40198;SDS011;25906;43.536;26.068;2023-04-16T05:45:07;10.35;;;4.85;;
40198;SDS011;25906;43.536;26.068;2023-04-16T05:47:53;17.60;;;4.78;;
40198;SDS011;25906;43.536;26.068;2023-04-16T05:50:38;14.10;;;5.22;;
40198;SDS011;25906;43.536;26.068;2023-04-16T05:53:24;13.05;;;4.85;;
40198;SDS011;25906;43.536;26.068;2023-04-16T05:56:09;15.90;;;5.55;;
40198;SDS011;25906;43.536;26.068;2023-04-16T05:58:55;20.35;;;5.78;;
40198;SDS011;25906;43.536;26.068;2023-04-16T06:01:40;12.63;;;4.70;;
40198;SDS011;25906;43.536;26.068;2023-04-16T06:04:25;19.42;;;5.43;;
40198;SDS011;25906;43.536;26.068;2023-04-16T06:07:11;9.02;;;5.05;;
40198;SDS011;25906;43.536;26.068;2023-04-16T06:09:56;19.17;;;5.80;;
40198;SDS011;25906;43.536;26.068;2023-04-16T06:12:41;16.40;;;6.70;;
40198;SDS011;25906;43.536;26.068;2023-04-16T06:15:27;12.82;;;6.10;;
40198;SDS011;25906;43.536;26.068;2023-04-16T06:18:12;19.23;;;7.22;;
40198;SDS011;25906;43.536;26.068;2023-04-16T06:20:58;10.77;;;5.68;;
40198;SDS011;25906;43.536;26.068;2023-04-16T06:23:43;18.20;;;5.75;;
40198;SDS011;25906;43.536;26.068;2023-04-16T06:26:29;14.82;;;6.50;;
40198;SDS011;25906;43.536;26.068;2023-04-16T06:29:14;13.95;;;5.93;;
40198;SDS011;25906;43.536;26.068;2023-04-16T06:32:00;20.30;;;5.55;;
40198;SDS011;25906;43.536;26.068;2023-04-16T06:37:31;16.60;;;5.65;;
40198;SDS011;25906;43.536;26.068;2023-04-16T06:40:16;18.15;;;5.43;;
40198;SDS011;25906;43.536;26.068;2023-04-16T06:43:02;19.60;;;6.40;;
40198;SDS011;25906;43.536;26.068;2023-04-16T06:45:47;14.07;;;6.30;;
40198;SDS011;25906;43.536;26.068;2023-04-16T06:48:33;18.40;;;6.93;;
40198;SDS011;25906;43.536;26.068;2023-04-16T06:51:18;18.50;;;5.93;;
40198;SDS011;25906;43.536;26.068;2023-04-16T06:54:03;12.85;;;5.53;;
40198;SDS011;25906;43.536;26.068;2023-04-16T06:56:49;23.48;;;5.57;;
40198;SDS011;25906;43.536;26.068;2023-04-16T06:59:34;15.15;;;5.97;;
40198;SDS011;25906;43.536;26.068;2023-04-16T07:02:20;19.25;;;7.10;;
40198;SDS011;25906;43.536;26.068;2023-04-16T07:05:05;12.05;;;5.38;;
40198;SDS011;25906;43.536;26.068;2023-04-16T07:07:51;16.77;;;6.55;;
40198;SDS011;25906;43.536;26.068;2023-04-16T07:10:37;17.88;;;6.65;;
40198;SDS011;25906;43.536;26.068;2023-04-16T07:13:22;15.85;;;5.80;;
40198;SDS011;25906;43.536;26.068;2023-04-16T07:16:07;16.38;;;6.38;;
40198;SDS011;25906;43.536;26.068;2023-04-16T07:18:53;17.63;;;5.50;;
40198;SDS011;25906;43.536;26.068;2023-04-16T07:21:39;15.57;;;5.65;;
40198;SDS011;25906;43.536;26.068;2023-04-16T07:24:26;11.98;;;4.95;;
40198;SDS011;25906;43.536;26.068;2023-04-16T07:27:11;15.75;;;5.30;;
40198;SDS011;25906;43.536;26.068;2023-04-16T07:29:57;18.33;;;5.47;;
40198;SDS011;25906;43.536;26.068;2023-04-16T07:32:42;14.82;;;4.75;;
40198;SDS011;25906;43.536;26.068;2023-04-16T07:35:27;15.73;;;5.35;;
40198;SDS011;25906;43.536;26.068;2023-04-16T07:38:13;16.75;;;5.63;;
40198;SDS011;25906;43.536;26.068;2023-04-16T07:41:00;17.92;;;5.18;;
40198;SDS011;25906;43.536;26.068;2023-04-16T07:43:46;14.63;;;4.68;;
40198;SDS011;25906;43.536;26.068;2023-04-16T07:46:31;16.30;;;5.07;;
40198;SDS011;25906;43.536;26.068;2023-04-16T07:49:16;15.35;;;4.60;;
40198;SDS011;25906;43.536;26.068;2023-04-16T07:52:02;17.42;;;4.70;;
40198;SDS011;25906;43.536;26.068;2023-04-16T07:54:47;16.55;;;5.00;;
40198;SDS011;25906;43.536;26.068;2023-04-16T07:57:33;17.52;;;4.63;;
40198;SDS011;25906;43.536;26.068;2023-04-16T08:00:18;10.05;;;4.03;;
40198;SDS011;25906;43.536;26.068;2023-04-16T08:03:03;19.42;;;4.78;;
40198;SDS011;25906;43.536;26.068;2023-04-16T08:05:49;15.85;;;4.75;;
40198;SDS011;25906;43.536;26.068;2023-04-16T08:08:34;15.13;;;4.38;;
40198;SDS011;25906;43.536;26.068;2023-04-16T08:11:20;13.20;;;4.10;;
40198;SDS011;25906;43.536;26.068;2023-04-16T08:14:05;9.77;;;3.97;;
40198;SDS011;25906;43.536;26.068;2023-04-16T08:16:51;16.58;;;4.78;;
40198;SDS011;25906;43.536;26.068;2023-04-16T08:19:36;16.15;;;4.53;;
40198;SDS011;25906;43.536;26.068;2023-04-16T08:22:21;11.68;;;4.50;;
40198;SDS011;25906;43.536;26.068;2023-04-16T08:25:07;14.95;;;4.25;;
40198;SDS011;25906;43.536;26.068;2023-04-16T08:30:38;11.32;;;3.72;;
40198;SDS011;25906;43.536;26.068;2023-04-16T08:33:24;14.80;;;5.80;;
40198;SDS011;25906;43.536;26.068;2023-04-16T08:36:09;10.52;;;4.20;;
40198;SDS011;25906;43.536;26.068;2023-04-16T08:38:54;12.65;;;3.65;;
40198;SDS011;25906;43.536;26.068;2023-04-16T08:41:41;14.25;;;4.47;;
40198;SDS011;25906;43.536;26.068;2023-04-16T08:44:32;22.17;;;4.20;;
40198;SDS011;25906;43.536;26.068;2023-04-16T08:47:21;17.70;;;4.70;;
40198;SDS011;25906;43.536;26.068;2023-04-16T08:50:08;18.80;;;4.88;;
40198;SDS011;25906;43.536;26.068;2023-04-16T08:53:01;11.65;;;4.05;;
40198;SDS011;25906;43.536;26.068;2023-04-16T08:55:48;13.50;;;4.00;;
40198;SDS011;25906;43.536;26.068;2023-04-16T08:58:35;8.45;;;3.50;;
40198;SDS011;25906;43.536;26.068;2023-04-16T09:01:22;22.15;;;4.50;;
40198;SDS011;25906;43.536;26.068;2023-04-16T09:04:10;16.02;;;4.40;;
40198;SDS011;25906;43.536;26.068;2023-04-16T09:06:58;15.98;;;4.32;;
40198;SDS011;25906;43.536;26.068;2023-04-16T09:09:43;12.73;;;3.75;;
40198;SDS011;25906;43.536;26.068;2023-04-16T09:12:30;11.80;;;3.88;;
40198;SDS011;25906;43.536;26.068;2023-04-16T09:15:16;9.85;;;3.55;;
40198;SDS011;25906;43.536;26.068;2023-04-16T09:18:01;15.90;;;4.18;;
40198;SDS011;25906;43.536;26.068;2023-04-16T09:20:50;11.95;;;4.15;;
40198;SDS011;25906;43.536;26.068;2023-04-16T09:23:36;11.65;;;3.55;;
40198;SDS011;25906;43.536;26.068;2023-04-16T09:26:24;14.15;;;5.28;;
40198;SDS011;25906;43.536;26.068;2023-04-16T09:29:11;16.10;;;4.32;;
40198;SDS011;25906;43.536;26.068;2023-04-16T09:32:18;10.75;;;3.25;;
40198;SDS011;25906;43.536;26.068;2023-04-16T09:35:09;18.38;;;6.22;;
40198;SDS011;25906;43.536;26.068;2023-04-16T09:37:55;13.20;;;3.97;;
40198;SDS011;25906;43.536;26.068;2023-04-16T09:40:41;12.73;;;3.63;;
40198;SDS011;25906;43.536;26.068;2023-04-16T09:43:27;7.70;;;3.25;;
40198;SDS011;25906;43.536;26.068;2023-04-16T09:46:12;9.13;;;3.17;;
40198;SDS011;25906;43.536;26.068;2023-04-16T09:49:03;11.85;;;3.47;;
40198;SDS011;25906;43.536;26.068;2023-04-16T09:51:52;9.10;;;3.97;;
40198;SDS011;25906;43.536;26.068;2023-04-16T09:54:49;15.30;;;3.40;;
40198;SDS011;25906;43.536;26.068;2023-04-16T09:57:36;9.95;;;3.25;;
40198;SDS011;25906;43.536;26.068;2023-04-16T10:00:22;10.40;;;3.63;;
40198;SDS011;25906;43.536;26.068;2023-04-16T10:03:08;15.05;;;3.60;;
40198;SDS011;25906;43.536;26.068;2023-04-16T10:05:54;17.23;;;5.10;;
40198;SDS011;25906;43.536;26.068;2023-04-16T10:08:43;25.33;;;5.07;;
40198;SDS011;25906;43.536;26.068;2023-04-16T10:11:36;30.65;;;6.15;;
40198;SDS011;25906;43.536;26.068;2023-04-16T10:14:22;22.30;;;6.13;;
40198;SDS011;25906;43.536;26.068;2023-04-16T10:17:07;16.73;;;5.70;;
40198;SDS011;25906;43.536;26.068;2023-04-16T10:19:53;14.83;;;5.67;;
40198;SDS011;25906;43.536;26.068;2023-04-16T10:22:40;16.77;;;5.80;;
40198;SDS011;25906;43.536;26.068;2023-04-16T10:28:12;14.40;;;5.23;;
40198;SDS011;25906;43.536;26.068;2023-04-16T10:30:58;11.35;;;4.38;;
40198;SDS011;25906;43.536;26.068;2023-04-16T10:33:49;12.93;;;5.07;;
40198;SDS011;25906;43.536;26.068;2023-04-16T10:36:36;19.23;;;4.70;;
40198;SDS011;25906;43.536;26.068;2023-04-16T10:39:23;12.25;;;4.75;;
40198;SDS011;25906;43.536;26.068;2023-04-16T10:42:10;18.52;;;5.47;;
40198;SDS011;25906;43.536;26.068;2023-04-16T10:44:58;10.43;;;4.18;;
40198;SDS011;25906;43.536;26.068;2023-04-16T10:47:44;13.77;;;4.10;;
40198;SDS011;25906;43.536;26.068;2023-04-16T10:50:33;11.90;;;4.07;;
40198;SDS011;25906;43.536;26.068;2023-04-16T10:53:21;12.27;;;4.43;;
40198;SDS011;25906;43.536;26.068;2023-04-16T10:56:11;10.18;;;4.20;;
40198;SDS011;25906;43.536;26.068;2023-04-16T10:58:56;17.15;;;5.03;;
40198;SDS011;25906;43.536;26.068;2023-04-16T11:01:42;18.35;;;4.50;;
40198;SDS011;25906;43.536;26.068;2023-04-16T11:04:32;14.18;;;4.35;;
40198;SDS011;25906;43.536;26.068;2023-04-16T11:07:31;10.10;;;3.85;;
40198;SDS011;25906;43.536;26.068;2023-04-16T11:10:17;10.70;;;3.97;;
40198;SDS011;25906;43.536;26.068;2023-04-16T11:13:03;7.57;;;3.83;;
40198;SDS011;25906;43.536;26.068;2023-04-16T11:15:50;7.63;;;3.92;;
40198;SDS011;25906;43.536;26.068;2023-04-16T11:18:35;11.18;;;4.18;;
40198;SDS011;25906;43.536;26.068;2023-04-16T11:21:24;12.95;;;4.88;;
40198;SDS011;25906;43.536;26.068;2023-04-16T11:24:10;13.20;;;4.20;;
40198;SDS011;25906;43.536;26.068;2023-04-16T11:26:56;8.52;;;4.30;;
40198;SDS011;25906;43.536;26.068;2023-04-16T11:29:41;10.57;;;4.35;;
40198;SDS011;25906;43.536;26.068;2023-04-16T11:32:29;16.08;;;3.72;;
40198;SDS011;25906;43.536;26.068;2023-04-16T11:35:16;9.57;;;3.90;;
40198;SDS011;25906;43.536;26.068;2023-04-16T11:38:02;7.50;;;3.60;;
40198;SDS011;25906;43.536;26.068;2023-04-16T11:40:50;8.80;;;4.30;;
40198;SDS011;25906;43.536;26.068;2023-04-16T11:43:35;9.75;;;3.70;;
40198;SDS011;25906;43.536;26.068;2023-04-16T11:46:21;17.65;;;4.20;;
40198;SDS011;25906;43.536;26.068;2023-04-16T11:49:06;12.57;;;3.92;;
40198;SDS011;25906;43.536;26.068;2023-04-16T11:51:52;8.88;;;3.03;;
40198;SDS011;25906;43.536;26.068;2023-04-16T11:54:37;5.38;;;3.60;;
40198;SDS011;25906;43.536;26.068;2023-04-16T11:57:23;5.90;;;2.95;;
40198;SDS011;25906;43.536;26.068;2023-04-16T12:00:10;10.25;;;3.10;;
40198;SDS011;25906;43.536;26.068;2023-04-16T12:03:01;6.93;;;2.25;;
40198;SDS011;25906;43.536;26.068;2023-04-16T12:05:46;8.80;;;3.42;;
40198;SDS011;25906;43.536;26.068;2023-04-16T12:08:35;7.47;;;2.78;;
40198;SDS011;25906;43.536;26.068;2023-04-16T12:11:20;7.63;;;2.78;;
40198;SDS011;25906;43.536;26.068;2023-04-16T12:14:21;6.10;;;2.92;;
40198;SDS011;25906;43.536;26.068;2023-04-16T12:17:19;5.75;;;1.92;;
40198;SDS011;25906;43.536;26.068;2023-04-16T12:20:09;5.78;;;2.50;;
40198;SDS011;25906;43.536;26.068;2023-04-16T12:22:55;15.98;;;3.00;;
40198;SDS011;25906;43.536;26.068;2023-04-16T12:25:45;3.42;;;1.67;;
40198;SDS011;25906;43.536;26.068;2023-04-16T12:28:31;4.47;;;1.83;;
40198;SDS011;25906;43.536;26.068;2023-04-16T12:31:18;6.60;;;2.15;;
40198;SDS011;25906;43.536;26.068;2023-04-16T12:34:21;4.00;;;2.30;;
40198;SDS011;25906;43.536;26.068;2023-04-16T12:37:06;4.43;;;2.00;;
40198;SDS011;25906;43.536;26.068;2023-04-16T12:39:54;6.95;;;1.98;;
40198;SDS011;25906;43.536;26.068;2023-04-16T12:42:40;3.63;;;1.63;;
40198;SDS011;25906;43.536;26.068;2023-04-16T12:45:26;4.95;;;2.10;;
40198;SDS011;25906;43.536;26.068;2023-04-16T12:48:11;6.55;;;2.40;;
40198;SDS011;25906;43.536;26.068;2023-04-16T12:50:57;5.07;;;1.65;;
40198;SDS011;25906;43.536;26.068;2023-04-16T12:53:42;3.50;;;1.50;;
40198;SDS011;25906;43.536;26.068;2023-04-16T12:56:28;6.75;;;1.98;;
40198;SDS011;25906;43.536;26.068;2023-04-16T12:59:14;4.18;;;1.80;;
40198;SDS011;25906;43.536;26.068;2023-04-16T13:02:01;4.22;;;1.90;;
40198;SDS011;25906;43.536;26.068;2023-04-16T13:04:46;4.78;;;1.40;;
40198;SDS011;25906;43.536;26.068;2023-04-16T13:07:32;5.30;;;1.50;;
40198;SDS011;25906;43.536;26.068;2023-04-16T13:13:05;7.32;;;1.65;;
40198;SDS011;25906;43.536;26.068;2023-04-16T13:15:50;3.53;;;1.77;;
40198;SDS011;25906;43.536;26.068;2023-04-16T13:18:35;2.85;;;1.65;;
40198;SDS011;25906;43.536;26.068;2023-04-16T13:24:07;5.30;;;1.63;;
40198;SDS011;25906;43.536;26.068;2023-04-16T13:26:53;2.78;;;1.52;;
40198;SDS011;25906;43.536;26.068;2023-04-16T13:29:40;4.25;;;1.67;;
40198;SDS011;25906;43.536;26.068;2023-04-16T13:32:25;2.10;;;1.50;;
40198;SDS011;25906;43.536;26.068;2023-04-16T13:35:11;2.70;;;1.65;;
40198;SDS011;25906;43.536;26.068;2023-04-16T13:37:56;6.25;;;2.08;;
40198;SDS011;25906;43.536;26.068;2023-04-16T13:40:41;2.45;;;1.85;;
40198;SDS011;25906;43.536;26.068;2023-04-16T13:43:27;5.18;;;2.10;;
40198;SDS011;25906;43.536;26.068;2023-04-16T13:46:12;7.90;;;1.88;;
40198;SDS011;25906;43.536;26.068;2023-04-16T13:48:58;7.38;;;1.88;;
40198;SDS011;25906;43.536;26.068;2023-04-16T13:51:44;4.95;;;2.20;;
40198;SDS011;25906;43.536;26.068;2023-04-16T13:54:30;4.47;;;1.98;;
40198;SDS011;25906;43.536;26.068;2023-04-16T13:57:15;2.75;;;1.70;;
40198;SDS011;25906;43.536;26.068;2023-04-16T14:00:02;5.13;;;2.05;;
40198;SDS011;25906;43.536;26.068;2023-04-16T14:02:48;4.00;;;1.77;;
40198;SDS011;25906;43.536;26.068;2023-04-16T14:05:33;2.90;;;1.70;;
40198;SDS011;25906;43.536;26.068;2023-04-16T14:08:19;3.33;;;1.75;;
40198;SDS011;25906;43.536;26.068;2023-04-16T14:11:05;3.60;;;1.52;;
40198;SDS011;25906;43.536;26.068;2023-04-16T14:13:51;6.18;;;1.85;;
40198;SDS011;25906;43.536;26.068;2023-04-16T14:16:36;6.90;;;1.60;;
40198;SDS011;25906;43.536;26.068;2023-04-16T14:19:22;5.32;;;2.80;;
40198;SDS011;25906;43.536;26.068;2023-04-16T14:22:07;6.28;;;2.30;;
40198;SDS011;25906;43.536;26.068;2023-04-16T14:24:52;4.40;;;2.78;;
40198;SDS011;25906;43.536;26.068;2023-04-16T14:27:38;5.82;;;2.17;;
40198;SDS011;25906;43.536;26.068;2023-04-16T14:30:23;7.10;;;2.72;;
40198;SDS011;25906;43.536;26.068;2023-04-16T14:33:09;8.10;;;2.47;;
40198;SDS011;25906;43.536;26.068;2023-04-16T14:35:54;9.23;;;2.92;;
40198;SDS011;25906;43.536;26.068;2023-04-16T14:38:40;5.47;;;2.45;;
40198;SDS011;25906;43.536;26.068;2023-04-16T14:41:27;4.47;;;2.03;;
40198;SDS011;25906;43.536;26.068;2023-04-16T14:44:12;4.43;;;1.90;;
40198;SDS011;25906;43.536;26.068;2023-04-16T14:46:58;3.15;;;1.63;;
40198;SDS011;25906;43.536;26.068;2023-04-16T14:49:43;5.47;;;2.03;;
40198;SDS011;25906;43.536;26.068;2023-04-16T14:52:31;3.28;;;2.03;;
40198;SDS011;25906;43.536;26.068;2023-04-16T14:55:17;5.20;;;1.73;;
40198;SDS011;25906;43.536;26.068;2023-04-16T14:58:02;6.13;;;1.92;;
40198;SDS011;25906;43.536;26.068;2023-04-16T15:00:48;6.05;;;1.90;;
40198;SDS011;25906;43.536;26.068;2023-04-16T15:03:33;6.93;;;2.03;;
40198;SDS011;25906;43.536;26.068;2023-04-16T15:06:19;5.05;;;2.10;;
40198;SDS011;25906;43.536;26.068;2023-04-16T15:09:04;6.13;;;1.95;;
40198;SDS011;25906;43.536;26.068;2023-04-16T15:11:51;5.28;;;1.85;;
40198;SDS011;25906;43.536;26.068;2023-04-16T15:14:36;7.35;;;1.73;;
40198;SDS011;25906;43.536;26.068;2023-04-16T15:17:22;3.80;;;1.65;;
40198;SDS011;25906;43.536;26.068;2023-04-16T15:20:07;12.02;;;2.25;;
40198;SDS011;25906;43.536;26.068;2023-04-16T15:22:53;3.85;;;1.85;;
40198;SDS011;25906;43.536;26.068;2023-04-16T15:25:39;9.32;;;1.95;;
40198;SDS011;25906;43.536;26.068;2023-04-16T15:28:24;8.32;;;2.40;;
40198;SDS011;25906;43.536;26.068;2023-04-16T15:31:10;5.35;;;2.28;;
40198;SDS011;25906;43.536;26.068;2023-04-16T15:33:55;2.42;;;1.85;;
40198;SDS011;25906;43.536;26.068;2023-04-16T15:36:41;4.22;;;1.88;;
40198;SDS011;25906;43.536;26.068;2023-04-16T15:39:26;5.72;;;1.77;;
40198;SDS011;25906;43.536;26.068;2023-04-16T15:42:12;4.32;;;1.70;;
40198;SDS011;25906;43.536;26.068;2023-04-16T15:44:57;4.15;;;1.80;;
40198;SDS011;25906;43.536;26.068;2023-04-16T15:47:42;2.95;;;1.98;;
40198;SDS011;25906;43.536;26.068;2023-04-16T15:50:31;6.80;;;1.95;;
40198;SDS011;25906;43.536;26.068;2023-04-16T15:53:17;5.25;;;2.40;;
40198;SDS011;25906;43.536;26.068;2023-04-16T15:56:03;5.82;;;1.90;;
40198;SDS011;25906;43.536;26.068;2023-04-16T15:58:49;4.45;;;2.20;;
40198;SDS011;25906;43.536;26.068;2023-04-16T16:01:34;4.40;;;2.00;;
40198;SDS011;25906;43.536;26.068;2023-04-16T16:04:20;9.30;;;2.03;;
40198;SDS011;25906;43.536;26.068;2023-04-16T16:07:06;3.75;;;1.80;;
40198;SDS011;25906;43.536;26.068;2023-04-16T16:09:51;3.72;;;1.95;;
40198;SDS011;25906;43.536;26.068;2023-04-16T16:12:37;7.65;;;2.42;;
40198;SDS011;25906;43.536;26.068;2023-04-16T16:15:23;5.85;;;2.10;;
40198;SDS011;25906;43.536;26.068;2023-04-16T16:18:09;3.47;;;1.80;;
40198;SDS011;25906;43.536;26.068;2023-04-16T16:20:55;6.30;;;2.03;;
40198;SDS011;25906;43.536;26.068;2023-04-16T16:23:41;4.97;;;1.90;;
40198;SDS011;25906;43.536;26.068;2023-04-16T16:26:26;8.68;;;2.38;;
40198;SDS011;25906;43.536;26.068;2023-04-16T16:29:12;5.10;;;2.08;;
40198;SDS011;25906;43.536;26.068;2023-04-16T16:31:58;7.22;;;2.38;;
40198;SDS011;25906;43.536;26.068;2023-04-16T16:34:43;5.40;;;1.90;;